sensor_id;sensor_type;location;lat;lon;timestamp;temperature;humidity
8002;DHT22;4046;48.774;8.732;2023-10-08T00:01:03;18.70;98.30
8002;DHT22;4046;48.774;8.732;2023-10-08T00:03:31;18.70;98.30
8002;DHT22;4046;48.774;8.732;2023-10-08T00:06:02;18.70;98.30
8002;DHT22;4046;48.774;8.732;2023-10-08T00:08:32;18.70;98.30
8002;DHT22;4046;48.774;8.732;2023-10-08T00:10:58;18.70;98.30
8002;DHT22;4046;48.774;8.732;2023-10-08T00:13:32;18.60;98.30
8002;DHT22;4046;48.774;8.732;2023-10-08T00:16:01;18.60;98.30
8002;DHT22;4046;48.774;8.732;2023-10-08T00:18:27;18.60;98.30
8002;DHT22;4046;48.774;8.732;2023-10-08T00:20:53;18.60;98.30
8002;DHT22;4046;48.774;8.732;2023-10-08T00:23:42;18.60;98.30
8002;DHT22;4046;48.774;8.732;2023-10-08T00:26:09;18.60;98.30
8002;DHT22;4046;48.774;8.732;2023-10-08T00:28:35;18.60;98.30
8002;DHT22;4046;48.774;8.732;2023-10-08T00:31:04;18.60;98.30
8002;DHT22;4046;48.774;8.732;2023-10-08T00:33:37;18.60;98.30
8002;DHT22;4046;48.774;8.732;2023-10-08T00:36:03;18.60;98.30
8002;DHT22;4046;48.774;8.732;2023-10-08T00:38:46;18.50;98.30
8002;DHT22;4046;48.774;8.732;2023-10-08T00:41:15;18.60;98.30
8002;DHT22;4046;48.774;8.732;2023-10-08T00:43:41;18.60;98.30
8002;DHT22;4046;48.774;8.732;2023-10-08T00:46:08;18.50;98.30
8002;DHT22;4046;48.774;8.732;2023-10-08T00:48:53;18.50;98.30
8002;DHT22;4046;48.774;8.732;2023-10-08T00:51:21;18.50;98.30
8002;DHT22;4046;48.774;8.732;2023-10-08T00:54:02;18.50;98.30
8002;DHT22;4046;48.774;8.732;2023-10-08T00:56:33;18.50;98.40
8002;DHT22;4046;48.774;8.732;2023-10-08T00:59:18;18.50;98.30
8002;DHT22;4046;48.774;8.732;2023-10-08T01:01:48;18.50;98.30
8002;DHT22;4046;48.774;8.732;2023-10-08T01:04:21;18.50;98.30
8002;DHT22;4046;48.774;8.732;2023-10-08T01:06:56;18.50;98.30
8002;DHT22;4046;48.774;8.732;2023-10-08T01:09:27;18.50;98.30
8002;DHT22;4046;48.774;8.732;2023-10-08T01:14:38;18.50;98.40
8002;DHT22;4046;48.774;8.732;2023-10-08T01:17:09;18.50;98.30
8002;DHT22;4046;48.774;8.732;2023-10-08T01:19:38;18.50;98.40
8002;DHT22;4046;48.774;8.732;2023-10-08T01:22:06;18.50;98.40
8002;DHT22;4046;48.774;8.732;2023-10-08T01:24:33;18.40;98.30
8002;DHT22;4046;48.774;8.732;2023-10-08T01:27:01;18.40;98.30
8002;DHT22;4046;48.774;8.732;2023-10-08T01:29:30;18.50;98.40
8002;DHT22;4046;48.774;8.732;2023-10-08T01:31:57;18.40;98.30
8002;DHT22;4046;48.774;8.732;2023-10-08T01:34:23;18.40;98.40
8002;DHT22;4046;48.774;8.732;2023-10-08T01:36:56;18.40;98.30
8002;DHT22;4046;48.774;8.732;2023-10-08T01:39:30;18.40;98.30
8002;DHT22;4046;48.774;8.732;2023-10-08T01:41:57;18.40;98.40
8002;DHT22;4046;48.774;8.732;2023-10-08T01:44:23;18.40;98.30
8002;DHT22;4046;48.774;8.732;2023-10-08T01:46:49;18.40;98.30
8002;DHT22;4046;48.774;8.732;2023-10-08T01:49:15;18.40;98.30
8002;DHT22;4046;48.774;8.732;2023-10-08T01:51:42;18.40;98.30
8002;DHT22;4046;48.774;8.732;2023-10-08T01:54:14;18.40;98.30
8002;DHT22;4046;48.774;8.732;2023-10-08T01:56:43;18.40;98.30
8002;DHT22;4046;48.774;8.732;2023-10-08T01:59:10;18.40;98.30
8002;DHT22;4046;48.774;8.732;2023-10-08T02:01:37;18.40;98.40
8002;DHT22;4046;48.774;8.732;2023-10-08T02:04:06;18.40;98.40
8002;DHT22;4046;48.774;8.732;2023-10-08T02:06:34;18.40;98.40
8002;DHT22;4046;48.774;8.732;2023-10-08T02:09:01;18.40;98.40
8002;DHT22;4046;48.774;8.732;2023-10-08T02:11:47;18.40;98.40
8002;DHT22;4046;48.774;8.732;2023-10-08T02:14:17;18.40;98.40
8002;DHT22;4046;48.774;8.732;2023-10-08T02:16:43;18.40;98.40
8002;DHT22;4046;48.774;8.732;2023-10-08T02:19:10;18.40;98.40
8002;DHT22;4046;48.774;8.732;2023-10-08T02:21:39;18.30;98.30
8002;DHT22;4046;48.774;8.732;2023-10-08T02:24:08;18.30;98.40
8002;DHT22;4046;48.774;8.732;2023-10-08T02:26:37;18.30;98.30
8002;DHT22;4046;48.774;8.732;2023-10-08T02:29:03;18.30;98.30
8002;DHT22;4046;48.774;8.732;2023-10-08T02:31:39;18.40;98.40
8002;DHT22;4046;48.774;8.732;2023-10-08T02:34:06;18.30;98.30
8002;DHT22;4046;48.774;8.732;2023-10-08T02:36:36;18.30;98.30
8002;DHT22;4046;48.774;8.732;2023-10-08T02:39:05;18.30;98.30
8002;DHT22;4046;48.774;8.732;2023-10-08T02:41:43;18.30;98.40
8002;DHT22;4046;48.774;8.732;2023-10-08T02:44:12;18.30;98.30
8002;DHT22;4046;48.774;8.732;2023-10-08T02:46:43;18.30;98.30
8002;DHT22;4046;48.774;8.732;2023-10-08T02:49:11;18.30;98.30
8002;DHT22;4046;48.774;8.732;2023-10-08T02:51:40;18.30;98.30
8002;DHT22;4046;48.774;8.732;2023-10-08T02:54:08;18.30;98.30
8002;DHT22;4046;48.774;8.732;2023-10-08T02:56:47;18.30;98.30
8002;DHT22;4046;48.774;8.732;2023-10-08T02:59:14;18.30;98.30
8002;DHT22;4046;48.774;8.732;2023-10-08T03:01:40;18.30;98.30
8002;DHT22;4046;48.774;8.732;2023-10-08T03:04:07;18.30;98.40
8002;DHT22;4046;48.774;8.732;2023-10-08T03:06:43;18.30;98.40
8002;DHT22;4046;48.774;8.732;2023-10-08T03:09:10;18.30;98.40
8002;DHT22;4046;48.774;8.732;2023-10-08T03:11:39;18.20;98.40
8002;DHT22;4046;48.774;8.732;2023-10-08T03:14:05;18.30;98.40
8002;DHT22;4046;48.774;8.732;2023-10-08T03:16:40;18.20;98.30
8002;DHT22;4046;48.774;8.732;2023-10-08T03:19:06;18.20;98.30
8002;DHT22;4046;48.774;8.732;2023-10-08T03:21:32;18.30;98.40
8002;DHT22;4046;48.774;8.732;2023-10-08T03:24:04;18.20;98.30
8002;DHT22;4046;48.774;8.732;2023-10-08T03:26:49;18.30;98.30
8002;DHT22;4046;48.774;8.732;2023-10-08T03:29:21;18.30;98.40
8002;DHT22;4046;48.774;8.732;2023-10-08T03:31:47;18.20;98.30
8002;DHT22;4046;48.774;8.732;2023-10-08T03:34:13;18.20;98.30
8002;DHT22;4046;48.774;8.732;2023-10-08T03:36:41;18.20;98.30
8002;DHT22;4046;48.774;8.732;2023-10-08T03:39:10;18.20;98.30
8002;DHT22;4046;48.774;8.732;2023-10-08T03:41:39;18.20;98.30
8002;DHT22;4046;48.774;8.732;2023-10-08T03:44:06;18.20;98.30
8002;DHT22;4046;48.774;8.732;2023-10-08T03:46:39;18.20;98.30
8002;DHT22;4046;48.774;8.732;2023-10-08T03:49:06;18.20;98.30
8002;DHT22;4046;48.774;8.732;2023-10-08T03:51:41;18.20;98.30
8002;DHT22;4046;48.774;8.732;2023-10-08T03:54:07;18.20;98.30
8002;DHT22;4046;48.774;8.732;2023-10-08T03:56:36;18.20;98.30
8002;DHT22;4046;48.774;8.732;2023-10-08T03:59:03;18.20;98.30
8002;DHT22;4046;48.774;8.732;2023-10-08T04:01:41;18.20;98.30
8002;DHT22;4046;48.774;8.732;2023-10-08T04:04:07;18.20;98.30
8002;DHT22;4046;48.774;8.732;2023-10-08T04:06:41;18.20;98.30
8002;DHT22;4046;48.774;8.732;2023-10-08T04:09:15;18.20;98.30
8002;DHT22;4046;48.774;8.732;2023-10-08T04:11:51;18.20;98.30
8002;DHT22;4046;48.774;8.732;2023-10-08T04:14:24;18.20;98.30
8002;DHT22;4046;48.774;8.732;2023-10-08T04:16:51;18.20;98.30
8002;DHT22;4046;48.774;8.732;2023-10-08T04:19:21;18.20;98.30
8002;DHT22;4046;48.774;8.732;2023-10-08T04:21:53;18.20;98.30
8002;DHT22;4046;48.774;8.732;2023-10-08T04:24:25;18.20;98.30
8002;DHT22;4046;48.774;8.732;2023-10-08T04:26:55;18.20;98.30
8002;DHT22;4046;48.774;8.732;2023-10-08T04:29:25;18.10;98.30
8002;DHT22;4046;48.774;8.732;2023-10-08T04:31:52;18.10;98.30
8002;DHT22;4046;48.774;8.732;2023-10-08T04:34:30;18.10;98.30
8002;DHT22;4046;48.774;8.732;2023-10-08T04:36:55;18.10;98.30
8002;DHT22;4046;48.774;8.732;2023-10-08T04:39:27;18.10;98.30
8002;DHT22;4046;48.774;8.732;2023-10-08T04:41:59;18.10;98.30
8002;DHT22;4046;48.774;8.732;2023-10-08T04:44:32;18.10;98.30
8002;DHT22;4046;48.774;8.732;2023-10-08T04:46:58;18.10;98.30
8002;DHT22;4046;48.774;8.732;2023-10-08T04:49:30;18.10;98.30
8002;DHT22;4046;48.774;8.732;2023-10-08T04:52:05;18.10;98.30
8002;DHT22;4046;48.774;8.732;2023-10-08T04:54:41;18.10;98.30
8002;DHT22;4046;48.774;8.732;2023-10-08T04:57:16;18.00;98.30
8002;DHT22;4046;48.774;8.732;2023-10-08T04:59:43;18.10;98.30
8002;DHT22;4046;48.774;8.732;2023-10-08T05:02:09;18.10;98.60
8002;DHT22;4046;48.774;8.732;2023-10-08T05:04:48;18.10;98.30
8002;DHT22;4046;48.774;8.732;2023-10-08T05:07:17;18.10;98.30
8002;DHT22;4046;48.774;8.732;2023-10-08T05:09:44;18.10;98.30
8002;DHT22;4046;48.774;8.732;2023-10-08T05:12:13;18.10;98.30
8002;DHT22;4046;48.774;8.732;2023-10-08T05:15:00;18.10;98.20
8002;DHT22;4046;48.774;8.732;2023-10-08T05:17:39;18.10;98.20
8002;DHT22;4046;48.774;8.732;2023-10-08T05:20:21;18.10;98.20
8002;DHT22;4046;48.774;8.732;2023-10-08T05:23:10;18.10;98.20
8002;DHT22;4046;48.774;8.732;2023-10-08T05:25:56;18.10;98.30
8002;DHT22;4046;48.774;8.732;2023-10-08T05:28:31;18.10;98.20
8002;DHT22;4046;48.774;8.732;2023-10-08T05:31:11;18.10;98.20
8002;DHT22;4046;48.774;8.732;2023-10-08T05:33:57;18.10;98.30
8002;DHT22;4046;48.774;8.732;2023-10-08T05:36:41;18.10;98.30
8002;DHT22;4046;48.774;8.732;2023-10-08T05:39:37;18.10;98.20
8002;DHT22;4046;48.774;8.732;2023-10-08T05:42:08;18.10;98.30
8002;DHT22;4046;48.774;8.732;2023-10-08T05:44:45;18.10;98.30
8002;DHT22;4046;48.774;8.732;2023-10-08T05:47:16;18.10;98.30
8002;DHT22;4046;48.774;8.732;2023-10-08T05:49:54;17.80;98.20
8002;DHT22;4046;48.774;8.732;2023-10-08T05:52:39;18.10;98.30
8002;DHT22;4046;48.774;8.732;2023-10-08T05:55:23;18.10;98.20
8002;DHT22;4046;48.774;8.732;2023-10-08T05:58:01;18.00;98.20
8002;DHT22;4046;48.774;8.732;2023-10-08T06:00:41;18.00;98.50
8002;DHT22;4046;48.774;8.732;2023-10-08T06:03:17;18.00;98.20
8002;DHT22;4046;48.774;8.732;2023-10-08T06:06:02;17.80;98.20
8002;DHT22;4046;48.774;8.732;2023-10-08T06:08:48;18.00;98.20
8002;DHT22;4046;48.774;8.732;2023-10-08T06:11:38;18.00;98.20
8002;DHT22;4046;48.774;8.732;2023-10-08T06:14:13;18.00;98.20
8002;DHT22;4046;48.774;8.732;2023-10-08T06:16:42;18.10;98.30
8002;DHT22;4046;48.774;8.732;2023-10-08T06:19:13;18.10;98.20
8002;DHT22;4046;48.774;8.732;2023-10-08T06:21:41;18.10;98.20
8002;DHT22;4046;48.774;8.732;2023-10-08T06:24:10;18.00;98.50
8002;DHT22;4046;48.774;8.732;2023-10-08T06:26:37;18.00;98.20
8002;DHT22;4046;48.774;8.732;2023-10-08T06:29:23;18.00;98.20
8002;DHT22;4046;48.774;8.732;2023-10-08T06:31:57;18.00;98.20
8002;DHT22;4046;48.774;8.732;2023-10-08T06:34:28;18.00;98.20
8002;DHT22;4046;48.774;8.732;2023-10-08T06:36:57;18.00;98.30
8002;DHT22;4046;48.774;8.732;2023-10-08T06:39:24;18.00;98.20
8002;DHT22;4046;48.774;8.732;2023-10-08T06:42:15;18.00;98.20
8002;DHT22;4046;48.774;8.732;2023-10-08T06:44:42;18.00;98.20
8002;DHT22;4046;48.774;8.732;2023-10-08T06:47:13;18.00;98.20
8002;DHT22;4046;48.774;8.732;2023-10-08T06:49:42;18.00;98.20
8002;DHT22;4046;48.774;8.732;2023-10-08T06:52:09;18.10;98.20
8002;DHT22;4046;48.774;8.732;2023-10-08T06:54:37;18.10;98.20
8002;DHT22;4046;48.774;8.732;2023-10-08T06:57:02;18.00;98.60
8002;DHT22;4046;48.774;8.732;2023-10-08T06:59:28;18.00;98.20
8002;DHT22;4046;48.774;8.732;2023-10-08T07:01:57;18.00;98.10
8002;DHT22;4046;48.774;8.732;2023-10-08T07:04:24;18.10;98.20
8002;DHT22;4046;48.774;8.732;2023-10-08T07:06:50;18.00;98.20
8002;DHT22;4046;48.774;8.732;2023-10-08T07:09:17;18.00;98.10
8002;DHT22;4046;48.774;8.732;2023-10-08T07:11:52;18.10;98.20
8002;DHT22;4046;48.774;8.732;2023-10-08T07:14:22;18.10;98.20
8002;DHT22;4046;48.774;8.732;2023-10-08T07:16:48;18.10;98.20
8002;DHT22;4046;48.774;8.732;2023-10-08T07:19:18;18.10;98.10
8002;DHT22;4046;48.774;8.732;2023-10-08T07:21:47;18.10;98.10
8002;DHT22;4046;48.774;8.732;2023-10-08T07:24:14;18.10;98.10
8002;DHT22;4046;48.774;8.732;2023-10-08T07:26:44;18.10;98.10
8002;DHT22;4046;48.774;8.732;2023-10-08T07:29:13;18.10;98.10
8002;DHT22;4046;48.774;8.732;2023-10-08T07:31:43;18.10;98.10
8002;DHT22;4046;48.774;8.732;2023-10-08T07:34:15;18.10;98.10
8002;DHT22;4046;48.774;8.732;2023-10-08T07:36:42;18.10;98.10
8002;DHT22;4046;48.774;8.732;2023-10-08T07:39:13;18.10;98.10
8002;DHT22;4046;48.774;8.732;2023-10-08T07:41:53;18.10;98.10
8002;DHT22;4046;48.774;8.732;2023-10-08T07:44:20;18.20;98.10
8002;DHT22;4046;48.774;8.732;2023-10-08T07:46:51;18.20;98.10
8002;DHT22;4046;48.774;8.732;2023-10-08T07:49:17;18.10;98.10
8002;DHT22;4046;48.774;8.732;2023-10-08T07:51:44;18.10;98.10
8002;DHT22;4046;48.774;8.732;2023-10-08T07:54:21;18.10;98.10
8002;DHT22;4046;48.774;8.732;2023-10-08T07:56:49;18.10;98.10
8002;DHT22;4046;48.774;8.732;2023-10-08T07:59:15;18.10;98.10
8002;DHT22;4046;48.774;8.732;2023-10-08T08:01:43;18.10;98.10
8002;DHT22;4046;48.774;8.732;2023-10-08T08:04:12;18.20;98.10
8002;DHT22;4046;48.774;8.732;2023-10-08T08:06:51;18.20;98.10
8002;DHT22;4046;48.774;8.732;2023-10-08T08:09:18;18.20;98.10
8002;DHT22;4046;48.774;8.732;2023-10-08T08:11:49;18.20;98.10
8002;DHT22;4046;48.774;8.732;2023-10-08T08:14:16;18.20;98.30
8002;DHT22;4046;48.774;8.732;2023-10-08T08:16:43;18.30;98.30
8002;DHT22;4046;48.774;8.732;2023-10-08T08:19:14;18.30;98.20
8002;DHT22;4046;48.774;8.732;2023-10-08T08:21:45;18.40;98.10
8002;DHT22;4046;48.774;8.732;2023-10-08T08:24:14;18.40;98.10
8002;DHT22;4046;48.774;8.732;2023-10-08T08:26:57;18.40;98.00
8002;DHT22;4046;48.774;8.732;2023-10-08T08:29:37;18.50;98.20
8002;DHT22;4046;48.774;8.732;2023-10-08T08:32:13;18.50;98.10
8002;DHT22;4046;48.774;8.732;2023-10-08T08:34:44;18.60;98.00
8002;DHT22;4046;48.774;8.732;2023-10-08T08:37:13;18.70;98.20
8002;DHT22;4046;48.774;8.732;2023-10-08T08:39:39;18.70;98.00
8002;DHT22;4046;48.774;8.732;2023-10-08T08:42:07;18.80;98.00
8002;DHT22;4046;48.774;8.732;2023-10-08T08:44:36;18.90;97.90
8002;DHT22;4046;48.774;8.732;2023-10-08T08:47:14;18.90;97.80
8002;DHT22;4046;48.774;8.732;2023-10-08T08:49:46;19.00;97.70
8002;DHT22;4046;48.774;8.732;2023-10-08T08:52:14;19.10;98.00
8002;DHT22;4046;48.774;8.732;2023-10-08T08:54:41;19.10;97.70
8002;DHT22;4046;48.774;8.732;2023-10-08T08:57:07;19.20;97.60
8002;DHT22;4046;48.774;8.732;2023-10-08T08:59:59;19.30;97.60
8002;DHT22;4046;48.774;8.732;2023-10-08T09:02:25;19.30;97.70
8002;DHT22;4046;48.774;8.732;2023-10-08T09:04:51;19.30;97.70
8002;DHT22;4046;48.774;8.732;2023-10-08T09:07:21;19.40;97.60
8002;DHT22;4046;48.774;8.732;2023-10-08T09:09:47;19.40;97.60
8002;DHT22;4046;48.774;8.732;2023-10-08T09:12:16;19.50;97.60
8002;DHT22;4046;48.774;8.732;2023-10-08T09:14:42;19.40;97.50
8002;DHT22;4046;48.774;8.732;2023-10-08T09:17:10;19.60;97.50
8002;DHT22;4046;48.774;8.732;2023-10-08T09:19:37;19.70;97.50
8002;DHT22;4046;48.774;8.732;2023-10-08T09:22:07;20.10;97.40
8002;DHT22;4046;48.774;8.732;2023-10-08T09:24:35;20.30;97.10
8002;DHT22;4046;48.774;8.732;2023-10-08T09:27:05;20.50;97.00
8002;DHT22;4046;48.774;8.732;2023-10-08T09:29:33;20.70;96.80
8002;DHT22;4046;48.774;8.732;2023-10-08T09:32:04;20.80;96.60
8002;DHT22;4046;48.774;8.732;2023-10-08T09:34:32;20.90;96.50
8002;DHT22;4046;48.774;8.732;2023-10-08T09:36:58;21.00;96.40
8002;DHT22;4046;48.774;8.732;2023-10-08T09:39:28;21.10;96.30
8002;DHT22;4046;48.774;8.732;2023-10-08T09:41:57;21.20;96.30
8002;DHT22;4046;48.774;8.732;2023-10-08T09:44:24;21.20;96.20
8002;DHT22;4046;48.774;8.732;2023-10-08T09:47:05;21.20;96.30
8002;DHT22;4046;48.774;8.732;2023-10-08T09:52:16;21.10;96.40
8002;DHT22;4046;48.774;8.732;2023-10-08T09:54:59;21.10;96.30
8002;DHT22;4046;48.774;8.732;2023-10-08T09:57:28;21.10;96.30
8002;DHT22;4046;48.774;8.732;2023-10-08T09:59:53;21.20;96.30
8002;DHT22;4046;48.774;8.732;2023-10-08T10:02:20;21.30;96.50
8002;DHT22;4046;48.774;8.732;2023-10-08T10:04:50;21.20;96.60
8002;DHT22;4046;48.774;8.732;2023-10-08T10:07:20;21.20;96.70
8002;DHT22;4046;48.774;8.732;2023-10-08T10:09:49;21.00;96.70
8002;DHT22;4046;48.774;8.732;2023-10-08T10:12:20;20.90;96.70
8002;DHT22;4046;48.774;8.732;2023-10-08T10:14:53;20.90;96.60
8002;DHT22;4046;48.774;8.732;2023-10-08T10:17:26;20.60;96.50
8002;DHT22;4046;48.774;8.732;2023-10-08T10:19:55;20.80;96.60
8002;DHT22;4046;48.774;8.732;2023-10-08T10:22:32;20.70;96.60
8002;DHT22;4046;48.774;8.732;2023-10-08T10:24:59;20.60;96.60
8002;DHT22;4046;48.774;8.732;2023-10-08T10:27:30;20.60;96.70
8002;DHT22;4046;48.774;8.732;2023-10-08T10:30:05;20.60;96.70
8002;DHT22;4046;48.774;8.732;2023-10-08T10:32:37;20.50;96.80
8002;DHT22;4046;48.774;8.732;2023-10-08T10:35:03;20.50;96.90
8002;DHT22;4046;48.774;8.732;2023-10-08T10:37:32;20.50;97.20
8002;DHT22;4046;48.774;8.732;2023-10-08T10:40:08;20.60;97.40
8002;DHT22;4046;48.774;8.732;2023-10-08T10:42:39;20.60;97.30
8002;DHT22;4046;48.774;8.732;2023-10-08T10:45:15;20.70;97.40
8002;DHT22;4046;48.774;8.732;2023-10-08T10:48:03;20.70;97.20
8002;DHT22;4046;48.774;8.732;2023-10-08T10:50:49;20.80;97.30
8002;DHT22;4046;48.774;8.732;2023-10-08T10:53:34;20.80;97.10
8002;DHT22;4046;48.774;8.732;2023-10-08T10:56:20;20.80;96.80
8002;DHT22;4046;48.774;8.732;2023-10-08T10:58:59;20.70;96.80
8002;DHT22;4046;48.774;8.732;2023-10-08T11:01:28;20.80;96.50
8002;DHT22;4046;48.774;8.732;2023-10-08T11:04:10;20.90;96.60
8002;DHT22;4046;48.774;8.732;2023-10-08T11:06:44;20.90;96.70
8002;DHT22;4046;48.774;8.732;2023-10-08T11:09:11;20.90;96.70
8002;DHT22;4046;48.774;8.732;2023-10-08T11:11:42;21.00;96.90
8002;DHT22;4046;48.774;8.732;2023-10-08T11:14:12;21.00;96.50
8002;DHT22;4046;48.774;8.732;2023-10-08T11:16:42;21.00;96.10
8002;DHT22;4046;48.774;8.732;2023-10-08T11:19:09;21.00;95.80
8002;DHT22;4046;48.774;8.732;2023-10-08T11:21:53;21.00;95.80
8002;DHT22;4046;48.774;8.732;2023-10-08T11:24:29;20.90;95.60
8002;DHT22;4046;48.774;8.732;2023-10-08T11:26:59;20.90;95.40
8002;DHT22;4046;48.774;8.732;2023-10-08T11:29:49;20.90;95.70
8002;DHT22;4046;48.774;8.732;2023-10-08T11:32:24;20.90;95.60
8002;DHT22;4046;48.774;8.732;2023-10-08T11:34:58;20.90;95.70
8002;DHT22;4046;48.774;8.732;2023-10-08T11:37:29;20.90;95.30
8002;DHT22;4046;48.774;8.732;2023-10-08T11:39:56;20.90;95.70
8002;DHT22;4046;48.774;8.732;2023-10-08T11:42:25;20.90;96.10
8002;DHT22;4046;48.774;8.732;2023-10-08T11:44:57;20.90;96.10
8002;DHT22;4046;48.774;8.732;2023-10-08T11:47:44;20.90;96.30
8002;DHT22;4046;48.774;8.732;2023-10-08T11:50:11;21.00;96.40
8002;DHT22;4046;48.774;8.732;2023-10-08T11:52:42;21.00;96.50
8002;DHT22;4046;48.774;8.732;2023-10-08T11:55:09;21.10;96.50
8002;DHT22;4046;48.774;8.732;2023-10-08T11:57:35;21.10;96.50
8002;DHT22;4046;48.774;8.732;2023-10-08T12:00:02;21.10;96.60
8002;DHT22;4046;48.774;8.732;2023-10-08T12:02:43;21.10;96.70
8002;DHT22;4046;48.774;8.732;2023-10-08T12:05:09;21.10;96.20
8002;DHT22;4046;48.774;8.732;2023-10-08T12:07:47;21.10;96.20
8002;DHT22;4046;48.774;8.732;2023-10-08T12:10:17;21.10;96.20
8002;DHT22;4046;48.774;8.732;2023-10-08T12:12:51;21.10;96.10
8002;DHT22;4046;48.774;8.732;2023-10-08T12:15:25;21.10;96.40
8002;DHT22;4046;48.774;8.732;2023-10-08T12:18:11;21.10;96.30
8002;DHT22;4046;48.774;8.732;2023-10-08T12:21:06;21.10;96.70
8002;DHT22;4046;48.774;8.732;2023-10-08T12:23:39;21.20;96.50
8002;DHT22;4046;48.774;8.732;2023-10-08T12:26:04;21.20;96.80
8002;DHT22;4046;48.774;8.732;2023-10-08T12:28:33;21.20;96.90
8002;DHT22;4046;48.774;8.732;2023-10-08T12:31:00;21.30;96.90
8002;DHT22;4046;48.774;8.732;2023-10-08T12:33:26;21.40;97.00
8002;DHT22;4046;48.774;8.732;2023-10-08T12:35:55;21.40;96.70
8002;DHT22;4046;48.774;8.732;2023-10-08T12:38:22;21.40;96.30
8002;DHT22;4046;48.774;8.732;2023-10-08T12:40:54;21.40;96.30
8002;DHT22;4046;48.774;8.732;2023-10-08T12:43:24;21.40;96.00
8002;DHT22;4046;48.774;8.732;2023-10-08T12:45:54;21.40;95.90
8002;DHT22;4046;48.774;8.732;2023-10-08T12:48:24;21.40;96.00
8002;DHT22;4046;48.774;8.732;2023-10-08T12:50:52;21.40;96.10
8002;DHT22;4046;48.774;8.732;2023-10-08T12:53:28;21.40;96.60
8002;DHT22;4046;48.774;8.732;2023-10-08T12:56:06;21.40;96.30
8002;DHT22;4046;48.774;8.732;2023-10-08T12:58:36;21.30;96.30
8002;DHT22;4046;48.774;8.732;2023-10-08T13:01:10;21.40;96.30
8002;DHT22;4046;48.774;8.732;2023-10-08T13:03:37;21.40;96.30
8002;DHT22;4046;48.774;8.732;2023-10-08T13:06:17;21.40;96.40
8002;DHT22;4046;48.774;8.732;2023-10-08T13:08:57;21.40;96.40
8002;DHT22;4046;48.774;8.732;2023-10-08T13:11:27;21.40;96.70
8002;DHT22;4046;48.774;8.732;2023-10-08T13:13:57;21.40;96.70
8002;DHT22;4046;48.774;8.732;2023-10-08T13:16:25;21.50;96.70
8002;DHT22;4046;48.774;8.732;2023-10-08T13:18:51;21.40;96.70
8002;DHT22;4046;48.774;8.732;2023-10-08T13:21:18;21.50;97.00
8002;DHT22;4046;48.774;8.732;2023-10-08T13:23:53;21.50;97.20
8002;DHT22;4046;48.774;8.732;2023-10-08T13:26:22;21.60;97.20
8002;DHT22;4046;48.774;8.732;2023-10-08T13:28:50;21.60;97.40
8002;DHT22;4046;48.774;8.732;2023-10-08T13:31:16;21.60;96.90
8002;DHT22;4046;48.774;8.732;2023-10-08T13:33:43;21.60;96.90
8002;DHT22;4046;48.774;8.732;2023-10-08T13:36:14;21.60;96.50
8002;DHT22;4046;48.774;8.732;2023-10-08T13:38:40;21.60;96.20
8002;DHT22;4046;48.774;8.732;2023-10-08T13:41:07;21.60;96.00
8002;DHT22;4046;48.774;8.732;2023-10-08T13:43:44;21.50;96.00
8002;DHT22;4046;48.774;8.732;2023-10-08T13:46:14;21.50;96.10
8002;DHT22;4046;48.774;8.732;2023-10-08T13:48:41;21.50;96.20
8002;DHT22;4046;48.774;8.732;2023-10-08T13:51:08;21.50;96.10
8002;DHT22;4046;48.774;8.732;2023-10-08T13:53:42;21.50;95.90
8002;DHT22;4046;48.774;8.732;2023-10-08T13:56:13;21.60;96.00
8002;DHT22;4046;48.774;8.732;2023-10-08T13:58:39;21.50;95.90
8002;DHT22;4046;48.774;8.732;2023-10-08T14:01:12;21.60;95.90
8002;DHT22;4046;48.774;8.732;2023-10-08T14:03:51;21.50;95.90
8002;DHT22;4046;48.774;8.732;2023-10-08T14:06:22;21.60;95.90
8002;DHT22;4046;48.774;8.732;2023-10-08T14:08:48;21.60;95.90
8002;DHT22;4046;48.774;8.732;2023-10-08T14:11:18;21.60;96.00
8002;DHT22;4046;48.774;8.732;2023-10-08T14:13:45;21.60;96.10
8002;DHT22;4046;48.774;8.732;2023-10-08T14:16:13;21.60;96.10
8002;DHT22;4046;48.774;8.732;2023-10-08T14:18:41;21.50;96.10
8002;DHT22;4046;48.774;8.732;2023-10-08T14:21:10;21.50;96.20
8002;DHT22;4046;48.774;8.732;2023-10-08T14:23:36;21.50;96.50
8002;DHT22;4046;48.774;8.732;2023-10-08T14:26:06;21.40;96.50
8002;DHT22;4046;48.774;8.732;2023-10-08T14:28:34;21.40;96.60
8002;DHT22;4046;48.774;8.732;2023-10-08T14:31:09;21.40;96.50
8002;DHT22;4046;48.774;8.732;2023-10-08T14:33:44;21.30;96.60
8002;DHT22;4046;48.774;8.732;2023-10-08T14:36:25;21.30;96.70
8002;DHT22;4046;48.774;8.732;2023-10-08T14:39:09;21.20;96.70
8002;DHT22;4046;48.774;8.732;2023-10-08T14:41:53;21.20;96.70
8002;DHT22;4046;48.774;8.732;2023-10-08T14:44:38;21.10;96.70
8002;DHT22;4046;48.774;8.732;2023-10-08T14:47:07;21.10;96.80
8002;DHT22;4046;48.774;8.732;2023-10-08T14:49:33;21.10;96.80
8002;DHT22;4046;48.774;8.732;2023-10-08T14:51:59;21.10;96.90
8002;DHT22;4046;48.774;8.732;2023-10-08T14:54:25;21.10;96.90
8002;DHT22;4046;48.774;8.732;2023-10-08T14:56:51;21.00;96.90
8002;DHT22;4046;48.774;8.732;2023-10-08T14:59:17;21.00;96.90
8002;DHT22;4046;48.774;8.732;2023-10-08T15:01:46;21.00;97.00
8002;DHT22;4046;48.774;8.732;2023-10-08T15:04:13;20.90;97.00
8002;DHT22;4046;48.774;8.732;2023-10-08T15:06:39;20.90;97.00
8002;DHT22;4046;48.774;8.732;2023-10-08T15:09:05;20.90;97.20
8002;DHT22;4046;48.774;8.732;2023-10-08T15:11:33;20.80;97.10
8002;DHT22;4046;48.774;8.732;2023-10-08T15:14:04;20.80;97.50
8002;DHT22;4046;48.774;8.732;2023-10-08T15:16:38;20.80;97.10
8002;DHT22;4046;48.774;8.732;2023-10-08T15:19:05;20.80;97.20
8002;DHT22;4046;48.774;8.732;2023-10-08T15:21:31;20.80;97.20
8002;DHT22;4046;48.774;8.732;2023-10-08T15:24:00;20.70;97.20
8002;DHT22;4046;48.774;8.732;2023-10-08T15:26:33;20.70;97.20
8002;DHT22;4046;48.774;8.732;2023-10-08T15:28:59;20.70;97.20
8002;DHT22;4046;48.774;8.732;2023-10-08T15:31:25;20.70;97.20
8002;DHT22;4046;48.774;8.732;2023-10-08T15:33:50;20.70;97.30
8002;DHT22;4046;48.774;8.732;2023-10-08T15:36:16;20.70;97.30
8002;DHT22;4046;48.774;8.732;2023-10-08T15:38:42;20.70;97.40
8002;DHT22;4046;48.774;8.732;2023-10-08T15:41:08;20.70;97.30
8002;DHT22;4046;48.774;8.732;2023-10-08T15:43:35;20.70;97.40
8002;DHT22;4046;48.774;8.732;2023-10-08T15:46:01;20.70;97.40
8002;DHT22;4046;48.774;8.732;2023-10-08T15:48:27;20.80;97.40
8002;DHT22;4046;48.774;8.732;2023-10-08T15:50:54;20.80;97.30
8002;DHT22;4046;48.774;8.732;2023-10-08T15:53:20;20.90;97.40
8002;DHT22;4046;48.774;8.732;2023-10-08T15:55:46;20.90;97.50
8002;DHT22;4046;48.774;8.732;2023-10-08T15:58:12;20.90;97.60
8002;DHT22;4046;48.774;8.732;2023-10-08T16:00:38;20.90;97.60
8002;DHT22;4046;48.774;8.732;2023-10-08T16:03:04;20.80;97.60
8002;DHT22;4046;48.774;8.732;2023-10-08T16:05:32;20.80;97.70
8002;DHT22;4046;48.774;8.732;2023-10-08T16:07:58;20.70;97.70
8002;DHT22;4046;48.774;8.732;2023-10-08T16:10:26;20.70;97.70
8002;DHT22;4046;48.774;8.732;2023-10-08T16:12:52;20.70;98.00
8002;DHT22;4046;48.774;8.732;2023-10-08T16:15:18;20.70;97.70
8002;DHT22;4046;48.774;8.732;2023-10-08T16:17:47;20.80;97.70
8002;DHT22;4046;48.774;8.732;2023-10-08T16:20:12;20.70;97.60
8002;DHT22;4046;48.774;8.732;2023-10-08T16:22:44;20.70;97.60
8002;DHT22;4046;48.774;8.732;2023-10-08T16:25:12;20.70;97.60
8002;DHT22;4046;48.774;8.732;2023-10-08T16:27:45;20.70;97.60
8002;DHT22;4046;48.774;8.732;2023-10-08T16:30:22;20.70;97.70
8002;DHT22;4046;48.774;8.732;2023-10-08T16:32:55;20.70;97.60